Nearby METAR Reports

 

KSEE - San Diego/Santee, California, USA
Distance from station: E 4mi, 6km
Updated: 11/20/2019 3:35am
Overcast
Overcast
 Wind from S
Wind: S 5 mph , 7 km/h
Temperature: 57°F , 14°C
Dew Point: 52°F , 11°C
Humidity: 82%
Barometer: 29.62 inHg , 1003 hPa
Clouds: Overcast
Visibility: 10 miles , 16 km
Cloud details: Few Clouds 3800 ft
Overcast 5000 ft
2019/11/20 11:35 KSEE 201135Z AUTO 17004KT 10SM FEW038 OVC050 14/11 A2962 RMK AO2
KMYF - San Diego/Mntgmy, California, USA
Distance from station: W 6mi, 10km
Updated: 11/20/2019 3:24am
Light rain, Overcast
Light rain, Overcast
 Wind from WSW
Wind: WSW 8 mph , 13 km/h
Temperature: 57°F , 14°C
Dew Point: 52°F , 11°C
Humidity: 82%
Barometer: 29.63 inHg , 1003.4 hPa
Summary: Light rain
Clouds: Overcast
Visibility: 8 miles , 13 km
Cloud details: Few Clouds 2100 ft
Mostly cloudy 3800 ft
Overcast 4500 ft
2019/11/20 11:24 KMYF 201124Z AUTO 25007KT 8SM -RA FEW021 BKN038 OVC045 14/11 A2963 RMK AO2 RAB1056 P0001 T01440111
 
KNKX - Miramar Nas/San, California, USA
Distance from station: WNW 7mi, 11km
Updated: 11/20/2019 2:55am
Light rain, Overcast
Light rain, Overcast
 Wind from WSW
Wind: WSW 5 mph , 7 km/h
Temperature: 59°F , 15°C
Dew Point: 52°F , 11°C
Humidity: 77%
Barometer: 29.62 inHg , 1003 hPa
Summary: Light rain
Clouds: Overcast
Visibility: 10 miles , 16 km
Cloud details: Few Clouds 2600 ft
Partly cloudy 3200 ft
Overcast 4200 ft
2019/11/20 10:55 KNKX 201055Z 24004KT 10SM -RA FEW026 SCT032 OVC042 15/11 A2962 RMK AO2 RAB50 SLP026 P0000 T01500106 $
KSAN - San Diego, California, USA
Distance from station: WSW 11mi, 17km
Updated: 11/20/2019 2:51am
Mostly cloudy
Mostly cloudy
 Wind from WSW
Wind: WSW 9 mph , 15 km/h
Temperature: 63°F , 17°C
Dew Point: 54°F , 12°C
Humidity: 73%
Barometer: 29.64 inHg , 1003.7 hPa
Clouds: Mostly cloudy
Visibility: 10 miles , 16 km
Cloud details: Few Clouds 2000 ft
Partly cloudy 3100 ft
Mostly cloudy 4600 ft
2019/11/20 10:51 KSAN 201051Z 24008KT 10SM FEW020 SCT031 BKN046 17/12 A2964 RMK AO2 RAB25E34 SLP038 VCSH P0000 T01720117 $
 
KNZY - North Island Nas, California, USA
Distance from station: SW 13mi, 22km
Updated: 11/20/2019 2:52am
Mostly cloudy
Mostly cloudy
 Wind from WSW
Wind: WSW 14 mph , 22 km/h, Gust: 20 mph , 31 km/h
Temperature: 61°F , 16°C
Dew Point: 50°F , 10°C
Humidity: 68%
Barometer: 29.63 inHg , 1003.4 hPa
Clouds: Mostly cloudy
Visibility: 9 miles , 14 km
Cloud details: Partly cloudy 2400 ft
Mostly cloudy 3500 ft
Mostly cloudy 4300 ft
2019/11/20 10:52 KNZY 201052Z 25012G17KT 9SM SCT024 BKN035 BKN043 16/10 A2963 RMK AO2 SLP031 T01610100
KRNM - Ramona, California, USA
Distance from station: NNE 16mi, 26km
Updated: 11/20/2019 3:30am
Overcast
Overcast
 Wind from S
Wind: S 6 mph , 9 km/h
Temperature: 54°F , 12°C
Dew Point: 50°F , 10°C
Humidity: 88%
Barometer: 29.62 inHg , 1003 hPa
Clouds: Overcast
Visibility: 10 miles , 16 km
Cloud details: Mostly cloudy 1700 ft
Mostly cloudy 2400 ft
Overcast 3700 ft
2019/11/20 11:30 KRNM 201130Z AUTO 18005KT 10SM BKN017 BKN024 OVC037 12/10 A2962 RMK AO2 T01170100
 
KSDM - San Diego/Brown, California, USA
Distance from station: S 16mi, 26km
Updated: 11/20/2019 3:23am
Light rain, Overcast
Light rain, Overcast
 Wind from S
Wind: S 6 mph , 9 km/h
Temperature: 55°F , 13°C
Dew Point: 52°F , 11°C
Humidity: 88%
Barometer: 29.64 inHg , 1003.7 hPa
Summary: Light rain
Clouds: Overcast
Visibility: 10 miles , 16 km
Cloud details: Few Clouds 2100 ft
Mostly cloudy 2800 ft
Overcast 4700 ft
2019/11/20 11:23 KSDM 201123Z AUTO 18005KT 10SM -RA FEW021 BKN028 OVC047 13/11 A2964 RMK AO2 P0000 T01330106
KNRS - Imperial Beach, California, USA
Distance from station: SSW 18mi, 29km
Updated: 11/20/2019 2:56am

 
Barometer: 29.65 inHg , 1004.1 hPa
Visibility: 10 miles , 16 km
2019/11/20 10:56 KNRS 201056Z AUTO 10SM A2965 RMK AO2 RAB21E33SNE07 SLP041 PNO $
 
MMTJ - Tijuana Intl Arp, Mexico
Distance from station: S 20mi, 32km
Updated: 11/20/2019 2:42am
Mostly cloudy
Mostly cloudy
 Wind from NW
Wind: NW 3 mph , 6 km/h
Temperature: 57°F , 14°C
Dew Point: 52°F , 11°C
Humidity: 82%
Barometer: 29.67 inHg , 1004.7 hPa
Clouds: Mostly cloudy
Visibility: 6 miles , 10 km
Cloud details: Mostly cloudy 1500 ft
2019/11/20 10:42 MMTJ 201042Z 31003KT 6SM BKN015 14/11 A2967 RMK 8/700 HZY
KCRQ - Carlsbad, California, USA
Distance from station: NW 26mi, 43km
Updated: 11/20/2019 3:31am
Overcast
Overcast
 Wind from WSW
Wind: WSW 14 mph , 22 km/h
Temperature: 57°F , 14°C
Dew Point: 52°F , 11°C
Humidity: 82%
Barometer: 29.60 inHg , 1002.4 hPa
Clouds: Overcast
Visibility: 10 miles , 16 km
Cloud details: Partly cloudy 2200 ft
Partly cloudy 4000 ft
Overcast 5000 ft
2019/11/20 11:31 KCRQ 201131Z 25012KT 10SM SCT022 SCT040 OVC050 14/11 A2960 RMK AO2 RAB16E26 P0000 T01440106
 
KOKB - Oceanside, California, USA
Distance from station: NW 33mi, 54km
Updated: 11/20/2019 2:52am
Overcast
Overcast
 Wind from SW
Wind: SW 9 mph , 15 km/h
Temperature: 63°F , 17°C
Dew Point: 50°F , 10°C
Humidity: 64%
Barometer: 29.59 inHg , 1002 hPa
Clouds: Overcast
Visibility: 10 miles , 16 km
Cloud details: Few Clouds 2700 ft
Overcast 4200 ft
2019/11/20 10:52 KOKB 201052Z AUTO 22008KT 10SM FEW027 OVC042 17/10 A2959 RMK AO2 SLP018 T01670100
KCZZ - Campo, California, USA
Distance from station: ESE 35mi, 56km
Updated: 11/20/2019 2:52am

 Wind from WSW
Wind: WSW 21 mph , 33 km/h, Gust: 26 mph , 43 km/h
Temperature: 50°F , 10°C
Wind Chill: 43°F , 6°C
Dew Point: 45°F , 7°C
Humidity: 82%
Barometer: 29.61 inHg , 1002.7 hPa
2019/11/20 10:52 KCZZ 201052Z AUTO 25018G23KT 10/07 A2961 RMK AO1 SLP002 T01000072
 
KNFG - Camp Pendleton, California, USA
Distance from station: NNW 37mi, 59km
Updated: 11/20/2019 2:55am
Overcast
Overcast
 Wind from SW
Wind: SW 9 mph , 15 km/h
Temperature: 59°F , 15°C
Dew Point: 50°F , 10°C
Humidity: 72%
Barometer: 29.58 inHg , 1001.7 hPa
Clouds: Overcast
Visibility: 10 miles , 16 km
Cloud details: Few Clouds 2600 ft
Overcast 4300 ft
2019/11/20 10:55 KNFG 201055Z AUTO 22008KT 10SM FEW026 OVC043 15/10 A2958 RMK AO2 RAB08E21 SLP017 P0000 T01500100 $
KRIV - Riverside/March, California, USA
Distance from station: N 74mi, 119km
Updated: 11/20/2019 2:58am
Few Clouds
Few Clouds
 Wind from SE
Wind: SE 12 mph , 19 km/h
Temperature: 54°F , 12°C
Dew Point: 54°F , 12°C
Humidity: 100%
Barometer: 29.54 inHg , 1000.3 hPa
Clouds: Few Clouds
Visibility: 10 miles , 16 km
Cloud details: Few Clouds 5000 ft
2019/11/20 10:58 KRIV 201058Z AUTO 13010KT 10SM FEW050 12/12 A2954 RMK AO2 SLP995 T01220122
 
KTRM - Thermal/Palm Spg, California, USA
Distance from station: NE 75mi, 121km
Updated: 11/20/2019 3:08am
Mist, Overcast
Mist, Overcast
 Wind from calm
Wind: Calm
Temperature: 59°F , 15°C
Dew Point: 57°F , 14°C
Humidity: 94%
Barometer: 29.50 inHg , 999 hPa
Summary: Mist
Clouds: Overcast
Visibility: 6 miles , 10 km
Cloud details: Mostly cloudy 1400 ft
Overcast 1900 ft
2019/11/20 11:08 KTRM 201108Z AUTO 00000KT 6SM BR BKN014 OVC019 15/14 A2950 RMK AO2 T01500139
KPSP - Palm Springs, California, USA
Distance from station: NNE 76mi, 122km
Updated: 11/20/2019 3:23am
Overcast
Overcast
 Wind from E
Wind: E 3 mph , 6 km/h
Temperature: 59°F , 15°C
Dew Point: 55°F , 13°C
Humidity: 88%
Barometer: 29.54 inHg , 1000.3 hPa
Clouds: Overcast
Visibility: 7 miles , 11 km
Cloud details: Mostly cloudy 800 ft
Mostly cloudy 1200 ft
Overcast 4900 ft
2019/11/20 11:23 KPSP 201123Z AUTO 10003KT 7SM BKN008 BKN012 OVC049 15/13 A2954 RMK AO2 RAE02 P0000 T01500128
 
KSNA - Costa Mesa, California, USA
Distance from station: NW 76mi, 123km
Updated: 11/20/2019 2:53am
Overcast
Overcast
 Wind from SSW
Wind: SSW 8 mph , 13 km/h
Temperature: 63°F , 17°C
Dew Point: 50°F , 10°C
Humidity: 64%
Barometer: 29.54 inHg , 1000.3 hPa
Clouds: Overcast
Visibility: 10 miles , 16 km
Cloud details: Mostly cloudy 3200 ft
Mostly cloudy 4700 ft
Overcast 5500 ft
2019/11/20 10:53 KSNA 201053Z AUTO 20007KT 10SM BKN032 BKN047 OVC055 17/10 A2954 RMK AO2 SLP002 T01720100
KNJK - El Centro Naf, California, USA
Distance from station: E 79mi, 127km
Updated: 11/20/2019 2:56am
Partly cloudy
Partly cloudy
 Wind from SSW
Wind: SSW 7 mph , 11 km/h
Temperature: 61°F , 16°C
Dew Point: 57°F , 14°C
Humidity: 88%
Barometer: 29.54 inHg , 1000.3 hPa
Clouds: Partly cloudy
Visibility: 8 miles , 13 km
Cloud details: Partly cloudy 6000 ft
Partly cloudy 9500 ft
2019/11/20 10:56 KNJK 201056Z AUTO 20006KT 8SM SCT060 SCT095 16/14 A2954 RMK AO2 SLP019 T01610144
 
KAJO - Corona Muni, California, USA
Distance from station: NNW 82mi, 132km
Updated: 11/20/2019 2:56am
Light rain, Partly cloudy
Light rain, Partly cloudy
 Wind from W
Wind: W 9 mph , 15 km/h
Temperature: 57°F , 14°C
Dew Point: 54°F , 12°C
Humidity: 88%
Barometer: 29.54 inHg , 1000.3 hPa
Summary: Light rain
Clouds: Partly cloudy
Visibility: 10 miles , 16 km
Cloud details: Few Clouds 1700 ft
Partly cloudy 5500 ft
2019/11/20 10:56 KAJO 201056Z AUTO 26008KT 10SM -RA FEW017 SCT055 14/12 A2954 RMK AO2 RAB19 SLP996 P0000 T01390122